sensor_id;sensor_type;location;lat;lon;timestamp;P1;durP1;ratioP1;P2;durP2;ratioP2
6374;SDS011;35400;45.472;-122.822;2022-12-11T00:01:19;0.73;;;0.40;;
6374;SDS011;35400;45.472;-122.822;2022-12-11T00:03:47;1.80;;;0.70;;
6374;SDS011;35400;45.472;-122.822;2022-12-11T00:06:16;0.50;;;0.50;;
6374;SDS011;35400;45.472;-122.822;2022-12-11T00:08:45;0.70;;;0.70;;
6374;SDS011;35400;45.472;-122.822;2022-12-11T00:11:13;0.83;;;0.57;;
6374;SDS011;35400;45.472;-122.822;2022-12-11T00:13:41;0.60;;;0.60;;
6374;SDS011;35400;45.472;-122.822;2022-12-11T00:16:08;0.50;;;0.50;;
6374;SDS011;35400;45.472;-122.822;2022-12-11T00:18:36;0.60;;;0.50;;
6374;SDS011;35400;45.472;-122.822;2022-12-11T00:21:04;0.50;;;0.50;;
6374;SDS011;35400;45.472;-122.822;2022-12-11T00:23:35;0.50;;;0.50;;
6374;SDS011;35400;45.472;-122.822;2022-12-11T00:26:06;0.33;;;0.33;;
6374;SDS011;35400;45.472;-122.822;2022-12-11T00:28:35;1.17;;;0.90;;
6374;SDS011;35400;45.472;-122.822;2022-12-11T00:31:03;0.60;;;0.60;;
6374;SDS011;35400;45.472;-122.822;2022-12-11T00:33:31;0.50;;;0.50;;
6374;SDS011;35400;45.472;-122.822;2022-12-11T00:35:58;0.93;;;0.70;;
6374;SDS011;35400;45.472;-122.822;2022-12-11T00:38:25;0.50;;;0.50;;
6374;SDS011;35400;45.472;-122.822;2022-12-11T00:40:52;1.97;;;1.00;;
6374;SDS011;35400;45.472;-122.822;2022-12-11T00:43:23;1.07;;;0.97;;
6374;SDS011;35400;45.472;-122.822;2022-12-11T00:45:49;0.70;;;0.70;;
6374;SDS011;35400;45.472;-122.822;2022-12-11T00:48:16;0.90;;;0.70;;
6374;SDS011;35400;45.472;-122.822;2022-12-11T00:50:43;0.80;;;0.80;;
6374;SDS011;35400;45.472;-122.822;2022-12-11T00:53:11;0.60;;;0.60;;
6374;SDS011;35400;45.472;-122.822;2022-12-11T00:55:38;0.80;;;0.60;;
6374;SDS011;35400;45.472;-122.822;2022-12-11T00:58:07;2.50;;;0.70;;
6374;SDS011;35400;45.472;-122.822;2022-12-11T01:00:36;0.63;;;0.63;;
6374;SDS011;35400;45.472;-122.822;2022-12-11T01:03:05;0.67;;;0.67;;
6374;SDS011;35400;45.472;-122.822;2022-12-11T01:05:32;0.80;;;0.80;;
6374;SDS011;35400;45.472;-122.822;2022-12-11T01:08:00;1.47;;;0.80;;
6374;SDS011;35400;45.472;-122.822;2022-12-11T01:10:27;0.50;;;0.50;;
6374;SDS011;35400;45.472;-122.822;2022-12-11T01:13:12;0.97;;;0.67;;
6374;SDS011;35400;45.472;-122.822;2022-12-11T01:15:40;1.90;;;1.10;;
6374;SDS011;35400;45.472;-122.822;2022-12-11T01:18:10;1.67;;;0.80;;
6374;SDS011;35400;45.472;-122.822;2022-12-11T01:20:39;1.00;;;1.00;;
6374;SDS011;35400;45.472;-122.822;2022-12-11T01:23:08;0.93;;;0.70;;
6374;SDS011;35400;45.472;-122.822;2022-12-11T01:25:37;0.50;;;0.50;;
6374;SDS011;35400;45.472;-122.822;2022-12-11T01:28:05;0.60;;;0.60;;
6374;SDS011;35400;45.472;-122.822;2022-12-11T01:30:33;0.50;;;0.50;;
6374;SDS011;35400;45.472;-122.822;2022-12-11T01:33:01;1.37;;;0.70;;
6374;SDS011;35400;45.472;-122.822;2022-12-11T01:35:28;0.70;;;0.70;;
6374;SDS011;35400;45.472;-122.822;2022-12-11T01:37:55;0.67;;;0.60;;
6374;SDS011;35400;45.472;-122.822;2022-12-11T01:40:22;0.90;;;0.73;;
6374;SDS011;35400;45.472;-122.822;2022-12-11T01:42:49;0.73;;;0.73;;
6374;SDS011;35400;45.472;-122.822;2022-12-11T01:45:26;0.80;;;0.80;;
6374;SDS011;35400;45.472;-122.822;2022-12-11T01:48:05;0.93;;;0.83;;
6374;SDS011;35400;45.472;-122.822;2022-12-11T01:50:38;1.40;;;0.80;;
6374;SDS011;35400;45.472;-122.822;2022-12-11T01:53:12;0.60;;;0.60;;
6374;SDS011;35400;45.472;-122.822;2022-12-11T01:56:07;0.70;;;0.70;;
6374;SDS011;35400;45.472;-122.822;2022-12-11T01:58:39;1.00;;;0.90;;
6374;SDS011;35400;45.472;-122.822;2022-12-11T02:01:13;1.90;;;1.03;;
6374;SDS011;35400;45.472;-122.822;2022-12-11T02:03:50;0.90;;;0.83;;
6374;SDS011;35400;45.472;-122.822;2022-12-11T02:06:39;0.97;;;0.97;;
6374;SDS011;35400;45.472;-122.822;2022-12-11T02:09:11;1.17;;;1.07;;
6374;SDS011;35400;45.472;-122.822;2022-12-11T02:26:06;0.77;;;0.63;;
6374;SDS011;35400;45.472;-122.822;2022-12-11T02:28:42;1.10;;;0.80;;
6374;SDS011;35400;45.472;-122.822;2022-12-11T02:34:29;1.00;;;1.00;;
6374;SDS011;35400;45.472;-122.822;2022-12-11T02:36:43;1.57;;;0.90;;
6374;SDS011;35400;45.472;-122.822;2022-12-11T02:39:16;1.03;;;0.93;;
6374;SDS011;35400;45.472;-122.822;2022-12-11T02:41:45;0.87;;;0.87;;
6374;SDS011;35400;45.472;-122.822;2022-12-11T02:44:15;1.50;;;0.93;;
6374;SDS011;35400;45.472;-122.822;2022-12-11T02:46:46;1.63;;;0.80;;
6374;SDS011;35400;45.472;-122.822;2022-12-11T02:49:12;0.97;;;0.97;;
6374;SDS011;35400;45.472;-122.822;2022-12-11T02:51:41;1.10;;;1.00;;
6374;SDS011;35400;45.472;-122.822;2022-12-11T02:54:10;2.17;;;0.90;;
6374;SDS011;35400;45.472;-122.822;2022-12-11T02:56:45;0.90;;;0.90;;
6374;SDS011;35400;45.472;-122.822;2022-12-11T02:59:20;1.63;;;1.00;;
6374;SDS011;35400;45.472;-122.822;2022-12-11T03:01:53;1.10;;;0.90;;
6374;SDS011;35400;45.472;-122.822;2022-12-11T03:04:20;1.37;;;1.10;;
6374;SDS011;35400;45.472;-122.822;2022-12-11T03:06:50;1.47;;;1.10;;
6374;SDS011;35400;45.472;-122.822;2022-12-11T03:09:20;0.80;;;0.80;;
6374;SDS011;35400;45.472;-122.822;2022-12-11T03:11:47;1.10;;;1.00;;
6374;SDS011;35400;45.472;-122.822;2022-12-11T03:14:14;7.13;;;6.43;;
6374;SDS011;35400;45.472;-122.822;2022-12-11T03:17:03;3.63;;;2.67;;
6374;SDS011;35400;45.472;-122.822;2022-12-11T03:19:33;2.33;;;1.10;;
6374;SDS011;35400;45.472;-122.822;2022-12-11T03:24:59;1.10;;;1.00;;
6374;SDS011;35400;45.472;-122.822;2022-12-11T03:27:37;1.10;;;1.00;;
6374;SDS011;35400;45.472;-122.822;2022-12-11T03:30:08;1.03;;;0.83;;
6374;SDS011;35400;45.472;-122.822;2022-12-11T03:32:58;1.53;;;1.23;;
6374;SDS011;35400;45.472;-122.822;2022-12-11T03:35:33;1.03;;;1.00;;
6374;SDS011;35400;45.472;-122.822;2022-12-11T03:38:10;1.10;;;1.10;;
6374;SDS011;35400;45.472;-122.822;2022-12-11T03:40:44;1.80;;;1.20;;
6374;SDS011;35400;45.472;-122.822;2022-12-11T03:43:14;1.30;;;1.13;;
6374;SDS011;35400;45.472;-122.822;2022-12-11T03:45:42;2.23;;;1.23;;
6374;SDS011;35400;45.472;-122.822;2022-12-11T03:48:11;1.97;;;1.20;;
6374;SDS011;35400;45.472;-122.822;2022-12-11T03:50:40;2.60;;;1.43;;
6374;SDS011;35400;45.472;-122.822;2022-12-11T03:53:08;1.67;;;1.40;;
6374;SDS011;35400;45.472;-122.822;2022-12-11T03:55:36;2.17;;;1.47;;
6374;SDS011;35400;45.472;-122.822;2022-12-11T03:58:05;1.57;;;1.43;;
6374;SDS011;35400;45.472;-122.822;2022-12-11T04:00:32;1.50;;;1.40;;
6374;SDS011;35400;45.472;-122.822;2022-12-11T04:03:00;1.50;;;1.40;;
6374;SDS011;35400;45.472;-122.822;2022-12-11T04:05:43;1.53;;;1.40;;
6374;SDS011;35400;45.472;-122.822;2022-12-11T04:08:16;1.47;;;1.20;;
6374;SDS011;35400;45.472;-122.822;2022-12-11T04:10:45;1.60;;;1.50;;
6374;SDS011;35400;45.472;-122.822;2022-12-11T04:13:12;1.83;;;1.37;;
6374;SDS011;35400;45.472;-122.822;2022-12-11T04:15:39;1.73;;;1.30;;
6374;SDS011;35400;45.472;-122.822;2022-12-11T04:18:07;2.43;;;1.37;;
6374;SDS011;35400;45.472;-122.822;2022-12-11T04:20:53;1.73;;;1.63;;
6374;SDS011;35400;45.472;-122.822;2022-12-11T04:23:39;3.27;;;1.50;;
6374;SDS011;35400;45.472;-122.822;2022-12-11T04:26:24;2.23;;;1.33;;
6374;SDS011;35400;45.472;-122.822;2022-12-11T04:28:51;3.07;;;1.40;;
6374;SDS011;35400;45.472;-122.822;2022-12-11T04:31:19;2.17;;;1.40;;
6374;SDS011;35400;45.472;-122.822;2022-12-11T04:33:47;1.53;;;1.40;;
6374;SDS011;35400;45.472;-122.822;2022-12-11T04:36:14;1.93;;;1.40;;
6374;SDS011;35400;45.472;-122.822;2022-12-11T04:38:41;2.90;;;1.50;;
6374;SDS011;35400;45.472;-122.822;2022-12-11T04:41:10;1.83;;;1.50;;
6374;SDS011;35400;45.472;-122.822;2022-12-11T04:43:38;1.53;;;1.43;;
6374;SDS011;35400;45.472;-122.822;2022-12-11T04:48:37;2.73;;;2.03;;
6374;SDS011;35400;45.472;-122.822;2022-12-11T04:51:05;3.50;;;2.27;;
6374;SDS011;35400;45.472;-122.822;2022-12-11T04:53:33;4.33;;;2.30;;
6374;SDS011;35400;45.472;-122.822;2022-12-11T04:56:03;4.10;;;3.73;;
6374;SDS011;35400;45.472;-122.822;2022-12-11T04:58:32;3.27;;;2.80;;
6374;SDS011;35400;45.472;-122.822;2022-12-11T05:01:06;3.77;;;2.60;;
6374;SDS011;35400;45.472;-122.822;2022-12-11T05:03:37;4.57;;;2.27;;
6374;SDS011;35400;45.472;-122.822;2022-12-11T05:06:05;2.67;;;1.90;;
6374;SDS011;35400;45.472;-122.822;2022-12-11T05:08:34;2.40;;;1.90;;
6374;SDS011;35400;45.472;-122.822;2022-12-11T05:11:03;2.40;;;2.20;;
6374;SDS011;35400;45.472;-122.822;2022-12-11T05:13:32;3.57;;;2.43;;
6374;SDS011;35400;45.472;-122.822;2022-12-11T05:15:59;3.93;;;3.23;;
6374;SDS011;35400;45.472;-122.822;2022-12-11T05:18:29;3.90;;;3.17;;
6374;SDS011;35400;45.472;-122.822;2022-12-11T05:20:56;9.60;;;5.43;;
6374;SDS011;35400;45.472;-122.822;2022-12-11T05:23:25;6.73;;;3.90;;
6374;SDS011;35400;45.472;-122.822;2022-12-11T05:25:53;5.43;;;3.97;;
6374;SDS011;35400;45.472;-122.822;2022-12-11T05:28:22;4.90;;;4.17;;
6374;SDS011;35400;45.472;-122.822;2022-12-11T05:30:56;4.03;;;3.47;;
6374;SDS011;35400;45.472;-122.822;2022-12-11T05:33:29;6.53;;;3.87;;
6374;SDS011;35400;45.472;-122.822;2022-12-11T05:35:56;5.23;;;3.93;;
6374;SDS011;35400;45.472;-122.822;2022-12-11T05:38:23;4.87;;;4.03;;
6374;SDS011;35400;45.472;-122.822;2022-12-11T05:40:54;6.10;;;5.00;;
6374;SDS011;35400;45.472;-122.822;2022-12-11T05:43:22;11.83;;;7.50;;
6374;SDS011;35400;45.472;-122.822;2022-12-11T05:45:49;38.73;;;24.13;;
6374;SDS011;35400;45.472;-122.822;2022-12-11T05:48:16;38.30;;;23.20;;
6374;SDS011;35400;45.472;-122.822;2022-12-11T05:50:43;5.77;;;5.10;;
6374;SDS011;35400;45.472;-122.822;2022-12-11T05:53:10;9.37;;;7.10;;
6374;SDS011;35400;45.472;-122.822;2022-12-11T05:55:37;14.53;;;9.67;;
6374;SDS011;35400;45.472;-122.822;2022-12-11T05:58:04;5.97;;;4.10;;
6374;SDS011;35400;45.472;-122.822;2022-12-11T06:00:31;10.57;;;6.20;;
6374;SDS011;35400;45.472;-122.822;2022-12-11T06:02:58;12.33;;;9.23;;
6374;SDS011;35400;45.472;-122.822;2022-12-11T06:05:28;11.90;;;8.53;;
6374;SDS011;35400;45.472;-122.822;2022-12-11T06:07:55;9.40;;;6.37;;
6374;SDS011;35400;45.472;-122.822;2022-12-11T06:10:21;9.83;;;7.07;;
6374;SDS011;35400;45.472;-122.822;2022-12-11T06:12:49;8.10;;;6.70;;
6374;SDS011;35400;45.472;-122.822;2022-12-11T06:15:16;8.50;;;6.53;;
6374;SDS011;35400;45.472;-122.822;2022-12-11T06:17:43;8.23;;;6.27;;
6374;SDS011;35400;45.472;-122.822;2022-12-11T06:20:09;10.17;;;5.30;;
6374;SDS011;35400;45.472;-122.822;2022-12-11T06:22:37;5.90;;;5.07;;
6374;SDS011;35400;45.472;-122.822;2022-12-11T06:25:03;5.83;;;4.80;;
6374;SDS011;35400;45.472;-122.822;2022-12-11T06:27:31;4.83;;;4.43;;
6374;SDS011;35400;45.472;-122.822;2022-12-11T06:29:58;6.20;;;4.93;;
6374;SDS011;35400;45.472;-122.822;2022-12-11T06:32:25;5.40;;;4.50;;
6374;SDS011;35400;45.472;-122.822;2022-12-11T06:34:52;5.20;;;4.70;;
6374;SDS011;35400;45.472;-122.822;2022-12-11T06:37:19;6.47;;;4.27;;
6374;SDS011;35400;45.472;-122.822;2022-12-11T06:39:46;4.67;;;4.17;;
6374;SDS011;35400;45.472;-122.822;2022-12-11T06:42:13;7.47;;;3.80;;
6374;SDS011;35400;45.472;-122.822;2022-12-11T06:44:41;4.97;;;3.43;;
6374;SDS011;35400;45.472;-122.822;2022-12-11T06:47:08;4.77;;;3.00;;
6374;SDS011;35400;45.472;-122.822;2022-12-11T06:49:35;4.27;;;3.70;;
6374;SDS011;35400;45.472;-122.822;2022-12-11T06:52:02;9.33;;;4.57;;
6374;SDS011;35400;45.472;-122.822;2022-12-11T06:54:30;6.53;;;4.20;;
6374;SDS011;35400;45.472;-122.822;2022-12-11T06:56:57;13.87;;;6.83;;
6374;SDS011;35400;45.472;-122.822;2022-12-11T06:59:24;14.10;;;7.87;;
6374;SDS011;35400;45.472;-122.822;2022-12-11T07:01:51;14.27;;;8.90;;
6374;SDS011;35400;45.472;-122.822;2022-12-11T07:04:18;18.17;;;10.27;;
6374;SDS011;35400;45.472;-122.822;2022-12-11T07:06:49;15.97;;;9.00;;
6374;SDS011;35400;45.472;-122.822;2022-12-11T07:09:16;7.83;;;5.37;;
6374;SDS011;35400;45.472;-122.822;2022-12-11T07:11:43;7.90;;;5.43;;
6374;SDS011;35400;45.472;-122.822;2022-12-11T07:14:10;8.03;;;4.67;;
6374;SDS011;35400;45.472;-122.822;2022-12-11T07:16:37;4.83;;;3.87;;
6374;SDS011;35400;45.472;-122.822;2022-12-11T07:19:04;5.47;;;4.93;;
6374;SDS011;35400;45.472;-122.822;2022-12-11T07:21:30;7.10;;;4.40;;
6374;SDS011;35400;45.472;-122.822;2022-12-11T07:23:57;4.20;;;3.37;;
6374;SDS011;35400;45.472;-122.822;2022-12-11T07:26:24;4.90;;;3.60;;
6374;SDS011;35400;45.472;-122.822;2022-12-11T07:28:51;5.13;;;4.37;;
6374;SDS011;35400;45.472;-122.822;2022-12-11T07:31:22;5.17;;;4.67;;
6374;SDS011;35400;45.472;-122.822;2022-12-11T07:33:53;3.97;;;3.30;;
6374;SDS011;35400;45.472;-122.822;2022-12-11T07:36:22;4.40;;;3.17;;
6374;SDS011;35400;45.472;-122.822;2022-12-11T07:38:49;5.07;;;3.57;;
6374;SDS011;35400;45.472;-122.822;2022-12-11T07:41:16;5.00;;;3.80;;
6374;SDS011;35400;45.472;-122.822;2022-12-11T07:43:51;6.23;;;5.07;;
6374;SDS011;35400;45.472;-122.822;2022-12-11T07:46:20;5.53;;;4.87;;
6374;SDS011;35400;45.472;-122.822;2022-12-11T07:48:49;6.57;;;4.10;;
6374;SDS011;35400;45.472;-122.822;2022-12-11T07:53:43;4.87;;;3.53;;
6374;SDS011;35400;45.472;-122.822;2022-12-11T07:56:12;4.97;;;3.40;;
6374;SDS011;35400;45.472;-122.822;2022-12-11T07:58:40;3.97;;;3.03;;
6374;SDS011;35400;45.472;-122.822;2022-12-11T08:01:11;4.43;;;2.80;;
6374;SDS011;35400;45.472;-122.822;2022-12-11T08:03:38;4.10;;;3.00;;
6374;SDS011;35400;45.472;-122.822;2022-12-11T08:06:06;3.70;;;3.10;;
6374;SDS011;35400;45.472;-122.822;2022-12-11T08:08:34;3.57;;;2.97;;
6374;SDS011;35400;45.472;-122.822;2022-12-11T08:11:01;3.47;;;3.17;;
6374;SDS011;35400;45.472;-122.822;2022-12-11T08:13:29;4.63;;;3.13;;
6374;SDS011;35400;45.472;-122.822;2022-12-11T08:15:56;3.23;;;2.80;;
6374;SDS011;35400;45.472;-122.822;2022-12-11T08:18:23;5.57;;;3.20;;
6374;SDS011;35400;45.472;-122.822;2022-12-11T08:20:50;3.33;;;2.60;;
6374;SDS011;35400;45.472;-122.822;2022-12-11T08:23:17;4.13;;;2.90;;
6374;SDS011;35400;45.472;-122.822;2022-12-11T08:25:44;3.23;;;2.70;;
6374;SDS011;35400;45.472;-122.822;2022-12-11T08:28:12;4.07;;;2.60;;
6374;SDS011;35400;45.472;-122.822;2022-12-11T08:30:39;2.77;;;2.20;;
6374;SDS011;35400;45.472;-122.822;2022-12-11T08:33:06;3.60;;;2.80;;
6374;SDS011;35400;45.472;-122.822;2022-12-11T08:35:37;3.30;;;2.40;;
6374;SDS011;35400;45.472;-122.822;2022-12-11T08:38:04;3.50;;;2.70;;
6374;SDS011;35400;45.472;-122.822;2022-12-11T08:40:31;2.97;;;2.40;;
6374;SDS011;35400;45.472;-122.822;2022-12-11T08:42:58;4.00;;;2.93;;
6374;SDS011;35400;45.472;-122.822;2022-12-11T08:45:25;3.13;;;2.37;;
6374;SDS011;35400;45.472;-122.822;2022-12-11T08:47:52;2.67;;;2.37;;
6374;SDS011;35400;45.472;-122.822;2022-12-11T08:50:18;3.40;;;3.10;;
6374;SDS011;35400;45.472;-122.822;2022-12-11T08:52:46;3.60;;;2.53;;
6374;SDS011;35400;45.472;-122.822;2022-12-11T08:55:12;3.30;;;2.63;;
6374;SDS011;35400;45.472;-122.822;2022-12-11T08:57:39;3.63;;;3.33;;
6374;SDS011;35400;45.472;-122.822;2022-12-11T09:00:07;4.63;;;3.20;;
6374;SDS011;35400;45.472;-122.822;2022-12-11T09:02:37;4.27;;;2.80;;
6374;SDS011;35400;45.472;-122.822;2022-12-11T09:05:05;3.87;;;3.17;;
6374;SDS011;35400;45.472;-122.822;2022-12-11T09:07:34;4.20;;;3.80;;
6374;SDS011;35400;45.472;-122.822;2022-12-11T09:10:03;6.77;;;4.20;;
6374;SDS011;35400;45.472;-122.822;2022-12-11T09:12:31;5.37;;;3.97;;
6374;SDS011;35400;45.472;-122.822;2022-12-11T09:14:59;3.90;;;3.60;;
6374;SDS011;35400;45.472;-122.822;2022-12-11T09:17:26;3.57;;;3.27;;
6374;SDS011;35400;45.472;-122.822;2022-12-11T09:19:53;3.70;;;3.17;;
6374;SDS011;35400;45.472;-122.822;2022-12-11T09:22:20;3.33;;;3.03;;
6374;SDS011;35400;45.472;-122.822;2022-12-11T09:24:47;3.43;;;3.13;;
6374;SDS011;35400;45.472;-122.822;2022-12-11T09:27:14;3.60;;;3.00;;
6374;SDS011;35400;45.472;-122.822;2022-12-11T09:29:41;4.63;;;3.40;;
6374;SDS011;35400;45.472;-122.822;2022-12-11T09:32:08;4.90;;;3.27;;
6374;SDS011;35400;45.472;-122.822;2022-12-11T09:34:35;5.43;;;3.80;;
6374;SDS011;35400;45.472;-122.822;2022-12-11T09:37:02;4.87;;;3.67;;
6374;SDS011;35400;45.472;-122.822;2022-12-11T09:39:29;6.20;;;3.70;;
6374;SDS011;35400;45.472;-122.822;2022-12-11T09:42:02;4.50;;;3.93;;
6374;SDS011;35400;45.472;-122.822;2022-12-11T09:44:49;3.73;;;3.43;;
6374;SDS011;35400;45.472;-122.822;2022-12-11T09:49:52;4.40;;;3.87;;
6374;SDS011;35400;45.472;-122.822;2022-12-11T09:52:39;6.17;;;4.60;;
6374;SDS011;35400;45.472;-122.822;2022-12-11T09:55:13;5.07;;;4.57;;
6374;SDS011;35400;45.472;-122.822;2022-12-11T09:58:09;5.80;;;5.20;;
6374;SDS011;35400;45.472;-122.822;2022-12-11T10:00:56;5.97;;;4.03;;
6374;SDS011;35400;45.472;-122.822;2022-12-11T10:09:10;5.60;;;4.00;;
6374;SDS011;35400;45.472;-122.822;2022-12-11T10:17:31;7.30;;;4.50;;
6374;SDS011;35400;45.472;-122.822;2022-12-11T10:19:54;6.70;;;4.37;;
6374;SDS011;35400;45.472;-122.822;2022-12-11T10:22:26;5.33;;;4.27;;
6374;SDS011;35400;45.472;-122.822;2022-12-11T10:25:06;5.53;;;4.33;;
6374;SDS011;35400;45.472;-122.822;2022-12-11T10:27:39;7.13;;;4.90;;
6374;SDS011;35400;45.472;-122.822;2022-12-11T10:36:10;4.90;;;4.07;;
6374;SDS011;35400;45.472;-122.822;2022-12-11T10:38:44;4.97;;;4.47;;
6374;SDS011;35400;45.472;-122.822;2022-12-11T10:41:18;8.37;;;4.60;;
6374;SDS011;35400;45.472;-122.822;2022-12-11T10:43:50;5.93;;;4.40;;
6374;SDS011;35400;45.472;-122.822;2022-12-11T10:46:19;6.27;;;4.67;;
6374;SDS011;35400;45.472;-122.822;2022-12-11T10:48:54;5.93;;;4.97;;
6374;SDS011;35400;45.472;-122.822;2022-12-11T10:54:03;7.80;;;5.33;;
6374;SDS011;35400;45.472;-122.822;2022-12-11T10:56:34;5.33;;;4.50;;
6374;SDS011;35400;45.472;-122.822;2022-12-11T10:59:03;4.70;;;4.30;;
6374;SDS011;35400;45.472;-122.822;2022-12-11T11:01:30;6.77;;;5.30;;
6374;SDS011;35400;45.472;-122.822;2022-12-11T11:03:59;6.03;;;4.77;;
6374;SDS011;35400;45.472;-122.822;2022-12-11T11:06:38;5.60;;;4.30;;
6374;SDS011;35400;45.472;-122.822;2022-12-11T11:09:21;4.53;;;3.93;;
6374;SDS011;35400;45.472;-122.822;2022-12-11T11:11:58;6.73;;;4.50;;
6374;SDS011;35400;45.472;-122.822;2022-12-11T11:14:25;5.63;;;3.93;;
6374;SDS011;35400;45.472;-122.822;2022-12-11T11:16:54;4.23;;;3.83;;
6374;SDS011;35400;45.472;-122.822;2022-12-11T11:19:30;4.60;;;4.20;;
6374;SDS011;35400;45.472;-122.822;2022-12-11T11:22:01;4.27;;;3.40;;
6374;SDS011;35400;45.472;-122.822;2022-12-11T11:25:00;4.10;;;3.33;;
6374;SDS011;35400;45.472;-122.822;2022-12-11T11:27:38;5.10;;;3.73;;
6374;SDS011;35400;45.472;-122.822;2022-12-11T11:32:45;3.90;;;3.50;;
6374;SDS011;35400;45.472;-122.822;2022-12-11T11:37:55;4.80;;;3.40;;
6374;SDS011;35400;45.472;-122.822;2022-12-11T11:40:45;4.60;;;3.27;;
6374;SDS011;35400;45.472;-122.822;2022-12-11T11:44:05;4.60;;;4.20;;
6374;SDS011;35400;45.472;-122.822;2022-12-11T11:46:37;4.13;;;3.60;;
6374;SDS011;35400;45.472;-122.822;2022-12-11T11:57:26;4.90;;;3.83;;
6374;SDS011;35400;45.472;-122.822;2022-12-11T12:00:33;5.93;;;4.00;;
6374;SDS011;35400;45.472;-122.822;2022-12-11T12:03:16;6.33;;;3.60;;
6374;SDS011;35400;45.472;-122.822;2022-12-11T12:06:03;4.00;;;3.50;;
6374;SDS011;35400;45.472;-122.822;2022-12-11T12:23:55;4.93;;;3.50;;
6374;SDS011;35400;45.472;-122.822;2022-12-11T12:29:04;4.27;;;3.87;;
6374;SDS011;35400;45.472;-122.822;2022-12-11T12:31:42;5.33;;;3.57;;
6374;SDS011;35400;45.472;-122.822;2022-12-11T12:34:33;5.10;;;4.00;;
6374;SDS011;35400;45.472;-122.822;2022-12-11T12:37:14;5.27;;;3.53;;
6374;SDS011;35400;45.472;-122.822;2022-12-11T12:45:27;5.23;;;3.80;;
6374;SDS011;35400;45.472;-122.822;2022-12-11T12:48:14;5.73;;;3.40;;
6374;SDS011;35400;45.472;-122.822;2022-12-11T12:50:42;5.57;;;4.40;;
6374;SDS011;35400;45.472;-122.822;2022-12-11T12:53:17;5.17;;;3.87;;
6374;SDS011;35400;45.472;-122.822;2022-12-11T12:55:49;5.03;;;3.50;;
6374;SDS011;35400;45.472;-122.822;2022-12-11T12:58:23;4.93;;;3.83;;
6374;SDS011;35400;45.472;-122.822;2022-12-11T13:01:06;5.13;;;4.30;;
6374;SDS011;35400;45.472;-122.822;2022-12-11T13:06:34;4.83;;;3.93;;
6374;SDS011;35400;45.472;-122.822;2022-12-11T13:11:51;5.83;;;4.37;;
6374;SDS011;35400;45.472;-122.822;2022-12-11T13:14:25;4.53;;;3.87;;
6374;SDS011;35400;45.472;-122.822;2022-12-11T13:19:45;12.60;;;5.80;;
6374;SDS011;35400;45.472;-122.822;2022-12-11T13:27:50;14.47;;;6.17;;
6374;SDS011;35400;45.472;-122.822;2022-12-11T13:33:06;12.63;;;3.97;;
6374;SDS011;35400;45.472;-122.822;2022-12-11T13:35:33;20.60;;;4.83;;
6374;SDS011;35400;45.472;-122.822;2022-12-11T13:38:05;40.40;;;5.90;;
6374;SDS011;35400;45.472;-122.822;2022-12-11T13:40:40;30.73;;;5.43;;
6374;SDS011;35400;45.472;-122.822;2022-12-11T13:45:52;17.30;;;4.30;;
6374;SDS011;35400;45.472;-122.822;2022-12-11T13:50:49;28.13;;;5.30;;
6374;SDS011;35400;45.472;-122.822;2022-12-11T13:53:18;8.30;;;3.97;;
6374;SDS011;35400;45.472;-122.822;2022-12-11T13:55:53;8.53;;;3.73;;
6374;SDS011;35400;45.472;-122.822;2022-12-11T13:58:36;16.97;;;4.07;;
6374;SDS011;35400;45.472;-122.822;2022-12-11T14:01:11;6.63;;;3.50;;
6374;SDS011;35400;45.472;-122.822;2022-12-11T14:04:18;5.87;;;3.57;;
6374;SDS011;35400;45.472;-122.822;2022-12-11T14:06:38;7.33;;;3.73;;
6374;SDS011;35400;45.472;-122.822;2022-12-11T14:09:05;11.87;;;4.40;;
6374;SDS011;35400;45.472;-122.822;2022-12-11T14:11:39;13.87;;;3.87;;
6374;SDS011;35400;45.472;-122.822;2022-12-11T14:14:13;7.70;;;3.80;;
6374;SDS011;35400;45.472;-122.822;2022-12-11T14:16:54;9.13;;;4.43;;
6374;SDS011;35400;45.472;-122.822;2022-12-11T14:19:21;9.10;;;4.10;;
6374;SDS011;35400;45.472;-122.822;2022-12-11T14:22:01;11.23;;;3.97;;
6374;SDS011;35400;45.472;-122.822;2022-12-11T14:24:30;8.53;;;4.13;;
6374;SDS011;35400;45.472;-122.822;2022-12-11T14:26:57;5.83;;;3.23;;
6374;SDS011;35400;45.472;-122.822;2022-12-11T14:29:26;4.80;;;3.40;;
6374;SDS011;35400;45.472;-122.822;2022-12-11T14:31:55;5.17;;;3.27;;
6374;SDS011;35400;45.472;-122.822;2022-12-11T14:34:33;5.60;;;3.63;;
6374;SDS011;35400;45.472;-122.822;2022-12-11T14:37:09;5.43;;;3.53;;
6374;SDS011;35400;45.472;-122.822;2022-12-11T14:39:38;5.00;;;3.97;;
6374;SDS011;35400;45.472;-122.822;2022-12-11T14:42:11;4.80;;;3.97;;
6374;SDS011;35400;45.472;-122.822;2022-12-11T14:47:26;11.43;;;4.80;;
6374;SDS011;35400;45.472;-122.822;2022-12-11T14:50:12;7.40;;;3.83;;
6374;SDS011;35400;45.472;-122.822;2022-12-11T14:53:02;9.17;;;4.20;;
6374;SDS011;35400;45.472;-122.822;2022-12-11T14:55:40;7.63;;;4.30;;
6374;SDS011;35400;45.472;-122.822;2022-12-11T14:58:42;6.30;;;4.00;;
6374;SDS011;35400;45.472;-122.822;2022-12-11T15:01:20;8.77;;;4.77;;
6374;SDS011;35400;45.472;-122.822;2022-12-11T15:03:47;7.70;;;4.73;;
6374;SDS011;35400;45.472;-122.822;2022-12-11T15:08:50;13.13;;;4.77;;
6374;SDS011;35400;45.472;-122.822;2022-12-11T15:11:17;14.70;;;4.80;;
6374;SDS011;35400;45.472;-122.822;2022-12-11T15:13:53;9.70;;;4.47;;
6374;SDS011;35400;45.472;-122.822;2022-12-11T15:16:28;11.40;;;4.40;;
6374;SDS011;35400;45.472;-122.822;2022-12-11T15:18:59;8.00;;;4.03;;
6374;SDS011;35400;45.472;-122.822;2022-12-11T15:21:28;8.17;;;4.23;;
6374;SDS011;35400;45.472;-122.822;2022-12-11T15:24:03;8.70;;;4.03;;
6374;SDS011;35400;45.472;-122.822;2022-12-11T15:26:39;8.03;;;4.30;;
6374;SDS011;35400;45.472;-122.822;2022-12-11T15:29:31;5.77;;;3.73;;
6374;SDS011;35400;45.472;-122.822;2022-12-11T15:32:01;5.70;;;3.30;;
6374;SDS011;35400;45.472;-122.822;2022-12-11T15:34:53;5.80;;;4.23;;
6374;SDS011;35400;45.472;-122.822;2022-12-11T15:37:27;5.03;;;3.67;;
6374;SDS011;35400;45.472;-122.822;2022-12-11T15:40:01;7.43;;;4.63;;
6374;SDS011;35400;45.472;-122.822;2022-12-11T15:42:36;6.97;;;4.67;;
6374;SDS011;35400;45.472;-122.822;2022-12-11T15:45:07;6.47;;;4.40;;
6374;SDS011;35400;45.472;-122.822;2022-12-11T15:47:43;5.93;;;4.23;;
6374;SDS011;35400;45.472;-122.822;2022-12-11T15:50:23;7.00;;;4.53;;
6374;SDS011;35400;45.472;-122.822;2022-12-11T15:52:53;4.80;;;3.93;;
6374;SDS011;35400;45.472;-122.822;2022-12-11T15:55:22;5.80;;;4.70;;
6374;SDS011;35400;45.472;-122.822;2022-12-11T15:57:55;7.37;;;4.23;;
6374;SDS011;35400;45.472;-122.822;2022-12-11T16:00:25;8.07;;;4.63;;
6374;SDS011;35400;45.472;-122.822;2022-12-11T16:02:53;6.07;;;4.20;;
6374;SDS011;35400;45.472;-122.822;2022-12-11T16:05:20;9.27;;;4.40;;
6374;SDS011;35400;45.472;-122.822;2022-12-11T16:07:48;7.87;;;5.10;;
6374;SDS011;35400;45.472;-122.822;2022-12-11T16:10:24;8.33;;;4.47;;
6374;SDS011;35400;45.472;-122.822;2022-12-11T16:12:51;7.60;;;5.10;;
6374;SDS011;35400;45.472;-122.822;2022-12-11T16:15:24;7.17;;;5.00;;
6374;SDS011;35400;45.472;-122.822;2022-12-11T16:18:01;6.40;;;4.57;;
6374;SDS011;35400;45.472;-122.822;2022-12-11T16:20:33;7.90;;;5.37;;
6374;SDS011;35400;45.472;-122.822;2022-12-11T16:23:01;7.60;;;5.07;;
6374;SDS011;35400;45.472;-122.822;2022-12-11T16:25:28;6.50;;;4.53;;
6374;SDS011;35400;45.472;-122.822;2022-12-11T16:27:57;7.13;;;4.57;;
6374;SDS011;35400;45.472;-122.822;2022-12-11T16:30:25;4.80;;;4.00;;
6374;SDS011;35400;45.472;-122.822;2022-12-11T16:32:53;5.63;;;3.80;;
6374;SDS011;35400;45.472;-122.822;2022-12-11T16:35:20;8.17;;;4.60;;
6374;SDS011;35400;45.472;-122.822;2022-12-11T16:37:48;5.47;;;3.97;;